Time;durP1;ratioP1;P1;durP2;ratioP2;P2;SDS_P1;SDS_P2;PMS_P1;PMS_P2;Temp;Humidity;BMP_temperature;BMP_pressure;BME280_temperature;BME280_humidity;BME280_pressure;Samples;Min_cycle;Max_cycle;Signal;HPM_P1;HPM_P2
2022/05/23 00:01:23;;;;;;;0.82;0.68;;;;;;;16.13;80.89;100541.53;5008801;28;20049;-62
2022/05/23 00:03:49;;;;;;;0.40;0.40;;;;;;;16.13;80.89;100541.53;5019581;28;20033;-62
2022/05/23 00:06:19;;;;;;;0.70;0.40;;;;;;;-144.12;80.99;108349.78;5010261;28;20037;-61
2022/05/23 00:08:44;;;;;;;4.00;0.63;;;;;;;16.04;81.30;100554.78;5010708;28;20033;-63
2022/05/23 00:11:10;;;;;;;0.55;0.50;;;;;;;16.02;81.24;100540.03;5009240;28;20103;-64
2022/05/23 00:13:35;;;;;;;0.50;0.50;;;;;;;15.94;81.34;100538.50;5007504;28;20026;-63
2022/05/23 00:16:03;;;;;;;2.67;0.70;;;;;;;16.00;81.08;100534.22;5011759;28;20504;-63
2022/05/23 00:18:29;;;;;;;0.93;0.70;;;;;;;15.93;81.50;100536.97;5005555;28;20038;-63
2022/05/23 00:20:54;;;;;;;0.82;0.55;;;;;;;15.91;81.45;100534.63;5011857;28;20459;-64
2022/05/23 00:23:22;;;;;;;0.57;0.50;;;;;;;15.88;81.75;100532.69;5009344;28;20087;-61
2022/05/23 00:25:48;;;;;;;1.02;0.55;;;;;;;15.91;81.57;100521.03;5010448;28;20041;-59
2022/05/23 00:28:14;;;;;;;0.47;0.47;;;;;;;15.89;81.42;100519.91;5012979;28;20332;-63
2022/05/23 00:30:40;;;;;;;1.40;0.52;;;;;;;15.89;81.42;100519.91;5012329;28;20034;-60
2022/05/23 00:35:54;;;;;;;1.23;0.50;;;;;;;15.85;81.36;100519.13;5010779;28;20042;-64
2022/05/23 00:38:20;;;;;;;0.85;0.80;;;;;;;15.82;81.62;100525.34;4991524;28;20550;-63
2022/05/23 00:43:13;;;;;;;0.60;0.60;;;;;;;15.82;81.55;100526.13;5010644;28;20567;-61
2022/05/23 00:43:38;;;;;;;5.70;0.65;;;;;;;15.78;81.82;100525.34;5005811;28;20061;-62
2022/05/23 00:46:04;;;;;;;0.70;0.70;;;;;;;15.79;81.55;100526.13;5010748;28;20507;-64
2022/05/23 00:48:31;;;;;;;0.70;0.60;;;;;;;15.73;81.68;100531.19;5012234;28;20038;-62
2022/05/23 00:51:03;;;;;;;0.50;0.35;;;;;;;15.70;81.69;100518.38;5011937;28;20188;-64
2022/05/23 00:53:34;;;;;;;1.60;0.57;;;;;;;15.70;100.00;72078.50;5004033;28;20033;-63
2022/05/23 00:56:00;;;;;;;0.45;0.40;;;;;;;15.52;82.80;100522.31;5011038;28;20481;-62
2022/05/23 00:58:36;;;;;;;1.05;0.63;;;;;;;15.47;82.59;100520.00;4991402;28;20164;-64
2022/05/23 01:01:05;;;;;;;0.50;0.50;;;;;;;15.42;83.10;100518.47;5009963;28;20046;-64
2022/05/23 01:03:31;;;;;;;1.08;0.68;;;;;;;15.38;83.00;100507.59;4993517;28;20123;-63
2022/05/23 01:05:56;;;;;;;0.63;0.50;;;;;;;15.37;82.96;100499.81;4986779;28;20038;-63
2022/05/23 01:10:47;;;;;;;2.53;0.50;;;;;;;15.34;83.51;100495.97;4960548;28;20058;-63
2022/05/23 01:13:15;;;;;;;2.67;0.75;;;;;;;15.35;82.99;100492.06;4989128;28;20113;-65
2022/05/23 01:15:45;;;;;;;3.13;0.93;;;;;;;15.29;83.54;100488.19;4996760;28;20053;-62
2022/05/23 01:18:11;;;;;;;0.70;0.32;;;;;;;15.23;83.68;100494.44;4977818;28;20045;-65
2022/05/23 01:20:37;;;;;;;0.55;0.43;;;;;;;15.21;83.39;100488.63;4979334;28;20039;-64
2022/05/23 01:23:36;;;;;;;0.85;0.50;;;;;;;15.16;83.58;100486.28;4958358;28;20400;-64
2022/05/23 01:26:13;;;;;;;1.63;0.77;;;;;;;15.17;83.85;100488.63;4971435;28;20078;-65
2022/05/23 01:28:44;;;;;;;0.45;0.45;;;;;;;15.11;83.84;100486.69;4968991;28;20341;-65
2022/05/23 01:31:16;;;;;;;1.05;0.50;;;;;;;15.03;84.31;100482.41;4977029;28;20042;-64
2022/05/23 01:33:42;;;;;;;2.22;0.63;;;;;;;15.08;84.23;100482.03;4961922;28;20030;-64
2022/05/23 01:36:12;;;;;;;1.20;0.52;;;;;;;15.09;84.26;100478.16;4968563;28;20393;-63
2022/05/23 01:38:38;;;;;;;0.88;0.65;;;;;;;15.07;84.42;100473.13;4959289;28;20027;-64
2022/05/23 01:41:24;;;;;;;0.43;0.43;;;;;;;15.00;84.62;100472.38;4976401;28;21289;-63
2022/05/23 01:43:57;;;;;;;0.40;0.40;;;;;;;14.96;84.67;100474.31;4992124;28;20027;-63
2022/05/23 01:46:29;;;;;;;0.82;0.50;;;;;;;14.93;84.80;100464.22;4961212;28;20382;-64
2022/05/23 01:49:17;;;;;;;1.25;0.80;;;;;;;14.89;84.81;100466.94;4982529;28;20054;-65
2022/05/23 01:51:44;;;;;;;1.48;1.38;;;;;;;14.87;85.25;100460.34;4961174;28;20022;-64
2022/05/23 01:54:12;;;;;;;0.52;0.52;;;;;;;14.91;85.20;100452.97;4967873;28;20022;-64
2022/05/23 01:56:39;;;;;;;0.50;0.50;;;;;;;14.90;84.88;100449.50;4953875;28;20035;-65
2022/05/23 02:01:51;;;;;;;0.50;0.50;;;;;;;14.89;84.90;100447.16;4969186;28;20026;-62
2022/05/23 02:04:36;;;;;;;0.65;0.50;;;;;;;14.84;84.84;100442.94;4972275;28;20100;-61
2022/05/23 02:07:02;;;;;;;1.40;0.47;;;;;;;14.81;85.39;100445.63;4977143;28;20038;-62
2022/05/23 02:09:33;;;;;;;1.50;0.52;;;;;;;14.85;85.17;100438.25;4973995;28;20035;-62
2022/05/23 02:12:11;;;;;;;0.65;0.45;;;;;;;14.88;85.30;100441.00;4971256;28;20132;-63
2022/05/23 02:14:38;;;;;;;0.55;0.50;;;;;;;14.86;85.07;100437.13;4989036;28;20034;-65
2022/05/23 02:17:12;;;;;;;1.75;0.75;;;;;;;14.79;85.60;100429.75;4972003;28;20045;-64
2022/05/23 02:19:38;;;;;;;1.67;0.65;;;;;;;14.77;85.59;100434.03;4976408;28;20115;-64
2022/05/23 02:22:14;;;;;;;1.23;0.68;;;;;;;14.72;86.06;100424.34;4959201;28;20504;-63
2022/05/23 02:24:40;;;;;;;0.77;0.50;;;;;;;14.78;85.81;100422.00;4979230;28;20416;-61
2022/05/23 02:27:06;;;;;;;0.70;0.70;;;;;;;14.84;85.31;100423.16;4970019;28;20113;-64
2022/05/23 02:29:36;;;;;;;0.75;0.68;;;;;;;14.85;85.14;100420.06;4966493;28;20065;-63
2022/05/23 02:32:02;;;;;;;0.85;0.68;;;;;;;-144.12;100.00;72078.50;4970035;28;20056;-63
2022/05/23 02:34:28;;;;;;;1.10;0.80;;;;;;;-144.12;100.00;72078.50;4966422;28;20076;-62
2022/05/23 02:36:55;;;;;;;0.63;0.63;;;;;;;-144.12;100.00;72078.50;4966515;28;20033;-63
2022/05/23 02:39:34;;;;;;;1.08;0.75;;;;;;;-144.12;100.00;72078.50;4965037;28;20057;-65
2022/05/23 02:42:01;;;;;;;3.65;0.70;;;;;;;-144.12;100.00;72078.50;4987760;28;20061;-64
2022/05/23 02:44:27;;;;;;;1.08;0.63;;;;;;;-144.12;100.00;72078.50;4986205;28;20025;-63
2022/05/23 02:46:53;;;;;;;0.70;0.60;;;;;;;-144.12;85.16;108349.78;4971244;28;20072;-64
2022/05/23 02:49:23;;;;;;;0.80;0.80;;;;;;;14.83;85.30;100406.13;4967301;28;20041;-63
2022/05/23 02:51:50;;;;;;;0.90;0.57;;;;;;;14.82;85.37;100398.38;4970901;28;20384;-64
2022/05/23 02:54:16;;;;;;;1.10;0.60;;;;;;;14.78;85.67;100392.97;4957343;28;20159;-64
2022/05/23 02:56:49;;;;;;;1.05;0.60;;;;;;;14.81;85.59;100391.41;4970773;28;20034;-63
2022/05/23 02:59:20;;;;;;;1.00;0.70;;;;;;;14.77;85.40;100385.97;4987396;28;20160;-63
2022/05/23 03:04:38;;;;;;;0.98;0.70;;;;;;;14.75;85.03;100387.56;4955612;28;20034;-63
2022/05/23 03:07:04;;;;;;;0.68;0.60;;;;;;;14.78;85.35;100381.34;4977940;28;20029;-64
2022/05/23 03:09:31;;;;;;;1.08;0.77;;;;;;;14.76;85.32;100389.88;4969105;28;20498;-64
2022/05/23 03:11:57;;;;;;;1.98;0.77;;;;;;;14.76;85.86;100389.88;4963732;28;20041;-65
2022/05/23 03:14:27;;;;;;;0.60;0.60;;;;;;;14.79;85.58;100385.63;4969031;28;20042;-61
2022/05/23 03:17:00;;;;;;;2.10;0.90;;;;;;;14.75;85.87;100388.31;4960197;28;20027;-63
2022/05/23 03:19:26;;;;;;;1.00;0.65;;;;;;;14.76;85.48;100373.59;4956141;28;20038;-61
2022/05/23 03:27:25;;;;;;;1.98;0.80;;;;;;;-144.12;100.00;92758.25;4984778;28;20037;-64
2022/05/23 03:29:52;;;;;;;0.93;0.70;;;;;;;14.71;85.68;78007.16;4965893;28;20319;-62
2022/05/23 03:32:17;;;;;;;1.98;0.82;;;;;;;14.68;86.34;100387.53;4960170;28;20130;-64
2022/05/23 03:34:43;;;;;;;4.05;0.80;;;;;;;14.64;86.23;100386.75;4969139;28;20053;-62
2022/05/23 03:37:09;;;;;;;0.55;0.55;;;;;;;14.66;86.21;100384.44;4964701;28;20034;-63
2022/05/23 03:39:37;;;;;;;0.85;0.55;;;;;;;14.68;86.26;100371.28;4972927;28;20022;-62
2022/05/23 03:42:03;;;;;;;0.68;0.68;;;;;;;14.68;86.26;72078.50;4972163;28;20537;-61
2022/05/23 03:44:29;;;;;;;1.13;0.80;;;;;;;14.72;85.85;100377.47;4987967;28;20034;-60
2022/05/23 03:46:54;;;;;;;1.35;0.63;;;;;;;-144.12;85.85;83969.59;4970623;28;20542;-63
2022/05/23 03:49:20;;;;;;;0.50;0.43;;;;;;;14.72;85.85;100377.47;4991545;28;20040;-63
2022/05/23 03:51:45;;;;;;;0.98;0.52;;;;;;;14.77;85.43;100380.56;4992089;28;20071;-63
2022/05/23 03:54:11;;;;;;;4.38;0.90;;;;;;;14.86;85.04;100374.75;4987371;28;20041;-61
2022/05/23 03:56:37;;;;;;;0.70;0.70;;;;;;;14.89;84.69;100373.97;4962731;28;20019;-60
2022/05/23 03:59:04;;;;;;;0.95;0.85;;;;;;;14.88;84.57;100372.41;4972716;28;20026;-63
2022/05/23 04:01:40;;;;;;;0.60;0.60;;;;;;;14.88;84.57;100372.41;4970032;28;20444;-64
2022/05/23 04:04:24;;;;;;;2.15;0.80;;;;;;;14.91;84.29;100368.91;4972402;28;20034;-65
2022/05/23 04:07:13;;;;;;;1.63;0.73;;;;;;;14.98;83.57;100366.22;4982275;28;20129;-63
2022/05/23 04:09:55;;;;;;;0.60;0.50;;;;;;;15.01;83.80;100371.63;4969035;28;20034;-61
2022/05/23 04:12:25;;;;;;;0.55;0.52;;;;;;;15.08;83.11;100362.66;4988337;28;20030;-63
2022/05/23 04:14:51;;;;;;;0.45;0.45;;;;;;;15.06;100.00;100357.66;4971830;28;20034;-64
2022/05/23 04:17:17;;;;;;;0.38;0.38;;;;;;;15.15;81.61;100349.88;4972621;28;20026;-64
2022/05/23 04:19:45;;;;;;;0.47;0.45;;;;;;;15.22;80.32;100349.06;4965876;28;20393;-64
2022/05/23 04:22:19;;;;;;;1.85;0.50;;;;;;;15.20;80.21;100343.25;4957633;28;20045;-63
2022/05/23 04:24:57;;;;;;;0.63;0.47;;;;;;;15.24;79.80;100346.75;4972061;28;20042;-64
2022/05/23 04:27:22;;;;;;;1.17;0.55;;;;;;;15.31;79.75;100349.44;4963425;28;20042;-64
2022/05/23 04:29:48;;;;;;;0.70;0.57;;;;;;;15.30;79.56;100347.88;4967176;28;20030;-64
2022/05/23 04:35:15;;;;;;;1.30;0.85;;;;;;;15.32;78.52;100340.13;4971889;28;20034;-64
2022/05/23 04:37:45;;;;;;;1.08;0.50;;;;;;;15.34;77.96;100335.06;4966844;28;20042;-62
2022/05/23 04:40:19;;;;;;;0.55;0.50;;;;;;;15.38;77.12;100333.13;4956092;28;20296;-64
2022/05/23 04:42:45;;;;;;;0.50;0.50;;;;;;;15.34;76.62;100337.78;4952689;28;20038;-64
2022/05/23 04:45:13;;;;;;;0.63;0.50;;;;;;;15.33;76.49;100345.16;4963763;28;20030;-64
2022/05/23 04:50:33;;;;;;;0.93;0.70;;;;;;;15.34;76.96;100343.22;4955764;28;20493;-64
2022/05/23 04:53:03;;;;;;;0.73;0.60;;;;;;;15.36;77.25;100340.88;4974122;28;20033;-63
2022/05/23 04:55:33;;;;;;;0.50;0.50;;;;;;;15.41;76.34;100337.75;4956497;28;20497;-62
2022/05/23 04:57:59;;;;;;;1.05;0.70;;;;;;;15.41;76.63;100324.19;4985452;28;20110;-60
2022/05/23 05:00:26;;;;;;;0.68;0.68;;;;;;;15.43;77.05;100323.84;4974048;28;20026;-64
2022/05/23 05:02:59;;;;;;;3.92;0.60;;;;;;;15.47;76.17;100325.34;4971811;28;20410;-63
2022/05/23 05:05:37;;;;;;;1.35;0.73;;;;;;;15.62;76.12;100320.63;4973010;28;20132;-61
2022/05/23 05:08:04;;;;;;;0.45;0.43;;;;;;;15.93;75.60;100319.66;4971448;28;20038;-63
2022/05/23 05:10:30;;;;;;;0.40;0.40;;;;;;;16.76;72.26;100311.94;4977627;28;20030;-63
2022/05/23 05:12:58;;;;;;;3.10;0.80;;;;;;;17.59;69.85;100308.66;4972149;28;20496;-63
2022/05/23 05:15:28;;;;;;;0.30;0.30;;;;;;;18.46;66.34;100294.06;4989569;28;20121;-64
2022/05/23 05:17:55;;;;;;;0.65;0.40;;;;;;;19.32;61.84;100300.16;4965314;28;20335;-64
2022/05/23 05:20:23;;;;;;;1.60;0.80;;;;;;;20.43;57.22;100290.56;4961329;28;20022;-62
2022/05/23 05:22:58;;;;;;;0.32;0.30;;;;;;;-144.12;100.00;72078.50;4979526;28;20070;-64
2022/05/23 05:25:26;;;;;;;0.20;0.20;;;;;;;22.13;51.78;100289.91;4972457;28;20496;-63
2022/05/23 05:27:57;;;;;;;;;;;;;;;22.73;49.91;100293.38;4964777;28;20031;-64
2022/05/23 05:30:23;;;;;;;0.95;0.47;;;;;;;23.19;49.20;100289.72;4964107;28;19960;-65
2022/05/23 05:33:01;;;;;;;0.35;0.22;;;;;;;22.64;49.75;100276.81;4961922;28;20034;-63
2022/05/23 05:35:36;;;;;;;0.40;0.20;;;;;;;22.36;100.00;100272.28;4956270;28;20396;-64
2022/05/23 05:38:05;;;;;;;0.20;0.20;;;;;;;-144.12;100.00;72078.50;4988262;28;20030;-65
2022/05/23 05:40:35;;;;;;;0.38;0.28;;;;;;;-144.12;100.00;72078.50;4954233;28;20157;-65
2022/05/23 05:43:07;;;;;;;0.30;0.30;;;;;;;22.27;49.16;100255.75;4956580;28;20039;-64
2022/05/23 05:45:41;;;;;;;0.60;0.28;;;;;;;22.06;100.00;59330.13;4957383;28;20704;-63
2022/05/23 05:48:19;;;;;;;0.20;0.20;;;;;;;-144.12;100.00;72078.50;4987952;28;20083;-64
2022/05/23 05:50:48;;;;;;;1.58;0.30;;;;;;;-144.12;100.00;72078.50;4969686;28;20027;-63
2022/05/23 05:53:24;;;;;;;0.20;0.20;;;;;;;23.56;100.00;100265.16;4973657;28;20030;-63
2022/05/23 05:55:53;;;;;;;0.55;0.20;;;;;;;-97.85;100.00;72078.50;4971908;28;20034;-63
2022/05/23 05:58:20;;;;;;;0.22;0.22;;;;;;;-144.12;100.00;72078.50;4973625;28;20488;-63
2022/05/23 06:00:49;;;;;;;0.20;0.20;;;;;;;23.64;47.06;100256.19;4969989;28;20031;-65
2022/05/23 06:03:15;;;;;;;0.50;0.22;;;;;;;-144.12;100.00;72078.50;4972772;28;20038;-64
2022/05/23 06:11:43;;;;;;;0.50;0.28;;;;;;;-144.12;100.00;72078.50;5007293;28;20089;-64
2022/05/23 06:14:16;;;;;;;0.10;0.10;;;;;;;-144.12;100.00;72078.50;4971950;28;20466;-63
2022/05/23 06:16:47;;;;;;;1.58;0.20;;;;;;;-144.12;100.00;72078.50;4969323;28;20440;-63
2022/05/23 06:19:43;;;;;;;0.50;0.43;;;;;;;-144.12;100.00;72078.50;4975176;28;20034;-63
2022/05/23 06:22:16;;;;;;;0.10;0.10;;;;;;;-144.12;100.00;72078.50;4975024;28;20038;-63
2022/05/23 06:24:54;;;;;;;0.68;0.45;;;;;;;22.79;100.00;93810.69;4972581;28;20038;-62
2022/05/23 06:27:20;;;;;;;0.20;0.20;;;;;;;-144.12;100.00;100217.81;4974484;28;20027;-61
2022/05/23 06:30:09;;;;;;;0.20;0.15;;;;;;;22.69;100.00;93795.72;4975372;28;20038;-60
2022/05/23 06:32:55;;;;;;;0.70;0.40;;;;;;;22.45;100.00;93850.97;4976469;28;20088;-63
2022/05/23 06:35:32;;;;;;;2.90;0.20;;;;;;;-144.12;100.00;72078.50;4955453;28;20050;-62
2022/05/23 06:37:58;;;;;;;0.25;0.25;;;;;;;-144.12;100.00;72078.50;4971586;28;20463;-63
2022/05/23 06:40:43;;;;;;;0.73;0.25;;;;;;;-144.12;100.00;72078.50;4986894;28;20101;-62
2022/05/23 06:43:27;;;;;;;1.15;0.40;;;;;;;-144.12;100.00;72078.50;4984282;28;20037;-61
2022/05/23 06:46:13;;;;;;;1.08;0.40;;;;;;;-144.12;100.00;72078.50;4990802;28;20037;-62
2022/05/23 06:48:39;;;;;;;0.60;0.40;;;;;;;23.08;100.00;72078.50;4992654;28;20054;-60
2022/05/23 06:51:13;;;;;;;0.30;0.30;;;;;;;-144.12;100.00;72078.50;4964715;28;20503;-60
2022/05/23 06:53:46;;;;;;;2.75;0.32;;;;;;;-144.12;100.00;72078.50;4964197;28;20040;-62
2022/05/23 06:56:32;;;;;;;0.80;0.40;;;;;;;22.34;100.00;72078.50;4974073;28;20077;-62
2022/05/23 06:59:01;;;;;;;0.40;0.30;;;;;;;-144.12;100.00;77630.38;4974681;28;20409;-61
2022/05/23 07:01:42;;;;;;;0.30;0.30;;;;;;;23.08;100.00;72078.50;4960931;28;20481;-61
2022/05/23 07:04:24;;;;;;;0.50;0.25;;;;;;;-144.12;100.00;72078.50;4973409;28;20042;-61
2022/05/23 07:12:37;;;;;;;0.88;0.40;;;;;;;-144.12;100.00;76890.28;5004910;28;20038;-69
2022/05/23 07:15:05;;;;;;;0.45;0.38;;;;;;;-144.12;100.00;72078.50;4989859;28;20040;-69
2022/05/23 07:17:36;;;;;;;0.35;0.20;;;;;;;-144.12;100.00;72078.50;4993965;28;20387;-69
2022/05/23 07:20:17;;;;;;;;;;;;;;;-144.12;0.00;72078.50;4993951;28;20120;-69
2022/05/23 07:22:59;;;;;;;0.30;0.30;;;;;;;-142.83;100.00;127244.28;4981687;28;19921;-69
2022/05/23 07:25:28;;;;;;;0.20;0.20;;;;;;;23.08;100.00;72078.50;5006730;28;20038;-69
2022/05/23 07:27:54;;;;;;;0.40;0.20;;;;;;;-144.12;100.00;72078.50;4993349;28;20029;-70
2022/05/23 07:30:21;;;;;;;0.73;0.30;;;;;;;-144.12;100.00;72078.50;5000967;28;20037;-69
2022/05/23 07:32:49;;;;;;;0.28;0.28;;;;;;;-144.12;100.00;72078.50;4991596;28;20038;-69
2022/05/23 07:35:26;;;;;;;0.50;0.40;;;;;;;23.02;100.00;93843.84;4983456;28;20045;-69
2022/05/23 07:37:56;;;;;;;2.08;0.30;;;;;;;-144.12;0.00;72078.50;4977412;28;20118;-70
2022/05/23 07:40:22;;;;;;;0.30;0.30;;;;;;;23.14;100.00;72078.50;4993496;28;20121;-69
2022/05/23 07:42:56;;;;;;;0.40;0.30;;;;;;;23.24;100.00;72078.50;4985847;28;20030;-70
2022/05/23 07:45:22;;;;;;;0.43;0.22;;;;;;;-144.12;100.00;72078.50;4989521;28;20137;-68
2022/05/23 07:47:49;;;;;;;0.30;0.30;;;;;;;-144.12;100.00;72078.50;4991527;28;20021;-69
2022/05/23 07:50:21;;;;;;;0.95;0.40;;;;;;;-144.12;100.00;72078.50;4990334;28;20559;-69
2022/05/23 08:01:06;;;;;;;0.22;0.20;;;;;;;-144.12;100.00;72078.50;4984515;28;20529;-69
2022/05/23 08:03:32;;;;;;;0.28;0.20;;;;;;;-97.85;100.00;72078.50;4993134;28;20036;-69
2022/05/23 08:06:05;;;;;;;0.30;0.30;;;;;;;-144.12;100.00;107820.81;4986529;28;20026;-69
2022/05/23 08:08:32;;;;;;;0.63;0.47;;;;;;;-144.12;100.00;72078.50;4976807;28;20033;-69
2022/05/23 08:10:59;;;;;;;0.55;0.47;;;;;;;-144.12;100.00;72078.50;4991893;28;20026;-69
2022/05/23 08:13:26;;;;;;;0.88;0.47;;;;;;;-144.12;100.00;72078.50;4992362;28;20032;-69
2022/05/23 08:15:52;;;;;;;0.82;0.20;;;;;;;-144.12;100.00;76609.34;4987515;28;20410;-69
2022/05/23 08:18:18;;;;;;;0.30;0.30;;;;;;;-144.12;100.00;72078.50;4991119;28;20032;-69
2022/05/23 08:20:50;;;;;;;0.28;0.28;;;;;;;-144.12;100.00;72078.50;4977369;28;20120;-69
2022/05/23 08:23:20;;;;;;;0.63;0.50;;;;;;;-144.12;100.00;72078.50;4992779;28;20514;-69
2022/05/23 08:26:02;;;;;;;0.47;0.30;;;;;;;-144.12;100.00;72078.50;4989551;28;20037;-69
2022/05/23 08:28:30;;;;;;;0.50;0.30;;;;;;;-144.12;100.00;72078.50;4996027;28;20041;-69
2022/05/23 08:30:57;;;;;;;0.52;0.43;;;;;;;-144.12;100.00;72078.50;4996427;28;20033;-69
2022/05/23 08:33:26;;;;;;;0.57;0.25;;;;;;;-144.12;100.00;72078.50;4978307;28;20144;-69
2022/05/23 08:36:04;;;;;;;0.77;0.77;;;;;;;-144.12;100.00;72078.50;4995789;28;20041;-69
2022/05/23 08:38:30;;;;;;;0.30;0.20;;;;;;;-144.12;100.00;72078.50;5007757;28;20030;-70
2022/05/23 08:41:19;;;;;;;1.13;0.50;;;;;;;-144.12;100.00;72078.50;4996703;28;20068;-70
2022/05/23 08:44:14;;;;;;;0.38;0.30;;;;;;;-144.12;100.00;77630.38;4993650;28;20029;-69
2022/05/23 08:47:02;;;;;;;0.60;0.40;;;;;;;-144.12;100.00;72078.50;5013013;28;20374;-68
2022/05/23 08:49:29;;;;;;;0.32;0.32;;;;;;;-144.12;100.00;72078.50;4994751;28;20037;-70
2022/05/23 08:52:18;;;;;;;0.40;0.25;;;;;;;-97.85;100.00;72078.50;4995380;28;20088;-69
2022/05/23 08:54:52;;;;;;;0.15;0.15;;;;;;;-144.12;100.00;57348.09;5007253;28;20030;-69
2022/05/23 08:58:03;;;;;;;0.40;0.30;;;;;;;-144.12;100.00;72078.50;5001295;28;20053;-69
2022/05/23 09:00:38;;;;;;;0.30;0.30;;;;;;;-144.12;100.00;72078.50;4995780;28;20034;-69
2022/05/23 09:03:19;;;;;;;0.22;0.20;;;;;;;-144.12;100.00;72078.50;4995502;28;20033;-69
2022/05/23 09:06:12;;;;;;;0.40;0.28;;;;;;;-144.12;100.00;72078.50;4992759;28;20340;-69
2022/05/23 09:08:59;;;;;;;0.20;0.20;;;;;;;-144.12;100.00;72078.50;4996318;28;20025;-68
2022/05/23 09:11:31;;;;;;;0.30;0.30;;;;;;;-144.12;100.00;72078.50;5013128;28;20476;-69
2022/05/23 09:13:57;;;;;;;0.40;0.25;;;;;;;-144.12;100.00;72078.50;5009183;28;20042;-69
2022/05/23 09:16:27;;;;;;;0.40;0.30;;;;;;;-144.12;100.00;72078.50;5012080;28;20498;-71
2022/05/23 09:19:02;;;;;;;0.30;0.30;;;;;;;-144.12;100.00;72078.50;5013844;28;20030;-69
2022/05/23 09:24:14;;;;;;;0.57;0.40;;;;;;;-144.12;100.00;72078.50;4998967;28;20038;-69
2022/05/23 09:26:40;;;;;;;3.30;0.40;;;;;;;-144.12;100.00;72078.50;4994975;28;20414;-70
2022/05/23 09:29:09;;;;;;;0.77;0.40;;;;;;;-144.12;100.00;72078.50;5010106;28;20026;-69
2022/05/23 09:31:43;;;;;;;0.40;0.38;;;;;;;-144.12;100.00;72078.50;5009167;28;20033;-69
2022/05/23 09:34:28;;;;;;;1.58;0.32;;;;;;;-144.12;100.00;72078.50;5008339;28;20036;-70
2022/05/23 09:36:53;;;;;;;0.32;0.28;;;;;;;-144.12;100.00;72078.50;5004931;28;20070;-69
2022/05/23 09:39:24;;;;;;;0.38;0.38;;;;;;;-144.12;100.00;72078.50;5001042;28;20101;-69
2022/05/23 09:47:46;;;;;;;0.73;0.40;;;;;;;-144.12;100.00;72078.50;5003667;28;20034;-69
2022/05/23 09:50:37;;;;;;;0.75;0.40;;;;;;;-144.12;100.00;72078.50;4992836;28;20030;-69
2022/05/23 09:53:03;;;;;;;0.20;0.20;;;;;;;-144.12;100.00;72078.50;4986116;28;20403;-69
2022/05/23 09:55:35;;;;;;;0.80;0.30;;;;;;;-144.12;100.00;72078.50;4994227;28;20276;-69
2022/05/23 09:58:11;;;;;;;0.93;0.38;;;;;;;-144.12;100.00;72078.50;4992196;28;20030;-69
2022/05/23 10:00:39;;;;;;;1.35;0.50;;;;;;;-144.12;100.00;72078.50;4986830;28;20049;-69
2022/05/23 10:03:19;;;;;;;0.52;0.47;;;;;;;-144.12;100.00;72078.50;4994943;28;20109;-69
2022/05/23 10:05:50;;;;;;;0.52;0.30;;;;;;;-144.12;100.00;72078.50;5000530;28;20061;-69
2022/05/23 10:08:37;;;;;;;0.68;0.32;;;;;;;-144.12;100.00;72078.50;4994908;28;20498;-69
2022/05/23 10:11:36;;;;;;;0.65;0.50;;;;;;;-144.12;100.00;72078.50;4994644;28;20045;-70
2022/05/23 10:14:05;;;;;;;0.38;0.38;;;;;;;-144.12;100.00;72078.50;5008810;28;20042;-69
2022/05/23 10:16:44;;;;;;;0.70;0.25;;;;;;;-144.12;100.00;72078.50;5001663;28;20022;-69
2022/05/23 10:19:12;;;;;;;0.30;0.30;;;;;;;-144.12;100.00;72078.50;4995208;28;20103;-69
2022/05/23 10:21:40;;;;;;;0.85;0.25;;;;;;;-144.12;100.00;72078.50;5009262;28;20044;-70
2022/05/23 10:24:19;;;;;;;0.38;0.38;;;;;;;-144.12;100.00;72078.50;4991373;28;20034;-69
2022/05/23 10:27:00;;;;;;;0.50;0.40;;;;;;;-144.12;100.00;72078.50;4994040;28;20124;-69
2022/05/23 10:29:35;;;;;;;0.52;0.30;;;;;;;-144.12;100.00;72078.50;5012111;28;20045;-69
2022/05/23 10:32:38;;;;;;;1.08;0.40;;;;;;;-144.12;100.00;72078.50;5004900;28;20123;-69
2022/05/23 10:35:27;;;;;;;0.40;0.30;;;;;;;-144.12;100.00;72078.50;5009314;28;20383;-69
2022/05/23 10:42:06;;;;;;;0.52;0.52;;;;;;;-144.12;100.00;72078.50;5012085;28;20512;-69
2022/05/23 10:43:25;;;;;;;0.77;0.50;;;;;;;-144.12;100.00;72078.50;5011589;28;20088;-70
2022/05/23 10:45:57;;;;;;;0.60;0.47;;;;;;;-144.12;100.00;72078.50;5010937;28;20025;-69
2022/05/23 10:48:32;;;;;;;0.30;0.30;;;;;;;-144.12;100.00;72078.50;5011395;28;20045;-69
2022/05/23 10:51:14;;;;;;;0.40;0.40;;;;;;;-144.12;100.00;72078.50;5009900;28;20057;-69
2022/05/23 10:54:01;;;;;;;1.40;0.82;;;;;;;-144.12;100.00;72078.50;4990705;28;20034;-69
2022/05/23 10:57:03;;;;;;;0.40;0.30;;;;;;;-144.12;100.00;72078.50;5010480;28;20029;-69
2022/05/23 10:59:54;;;;;;;1.08;0.55;;;;;;;-144.12;100.00;72078.50;5011138;28;20624;-70
2022/05/23 11:02:38;;;;;;;0.70;0.47;;;;;;;-144.12;100.00;72078.50;5011692;28;20486;-69
2022/05/23 11:05:07;;;;;;;0.52;0.50;;;;;;;-144.12;100.00;72078.50;4996669;28;20410;-69
2022/05/23 11:07:44;;;;;;;3.20;0.40;;;;;;;-144.12;100.00;72078.50;5010870;28;20041;-69
2022/05/23 11:10:19;;;;;;;0.82;0.50;;;;;;;-144.12;100.00;72078.50;4991909;28;20038;-69
2022/05/23 11:12:56;;;;;;;0.30;0.28;;;;;;;-144.12;100.00;72078.50;5000198;28;20042;-69
2022/05/23 11:15:40;;;;;;;0.40;0.35;;;;;;;-144.12;100.00;72078.50;4999142;28;20041;-70
2022/05/23 11:18:13;;;;;;;0.43;0.30;;;;;;;-144.12;100.00;72078.50;5001864;28;20042;-69
2022/05/23 11:20:40;;;;;;;0.50;0.40;;;;;;;-144.12;100.00;72078.50;5011603;28;20069;-70
2022/05/23 11:23:26;;;;;;;1.45;0.32;;;;;;;-144.12;100.00;72078.50;5013049;28;20100;-70
2022/05/23 11:26:00;;;;;;;0.47;0.25;;;;;;;-144.12;100.00;72078.50;5012940;28;20034;-70
2022/05/23 11:34:33;;;;;;;0.45;0.35;;;;;;;-144.12;100.00;72078.50;5007917;28;20042;-70
2022/05/23 11:39:44;;;;;;;0.28;0.25;;;;;;;-144.12;100.00;72078.50;5009480;28;20113;-69
2022/05/23 11:42:21;;;;;;;0.73;0.40;;;;;;;-144.12;100.00;72078.50;4997185;28;20522;-69
2022/05/23 11:44:49;;;;;;;0.80;0.45;;;;;;;-144.12;100.00;72078.50;5002551;28;20030;-69
2022/05/23 11:47:21;;;;;;;1.38;0.35;;;;;;;-144.12;100.00;72078.50;5001981;28;20053;-69
2022/05/23 11:49:59;;;;;;;0.30;0.30;;;;;;;-144.12;100.00;72078.50;5002048;28;20092;-70
2022/05/23 11:52:26;;;;;;;1.33;0.50;;;;;;;-144.12;100.00;72078.50;4989536;28;20041;-69
2022/05/23 11:54:52;;;;;;;0.30;0.30;;;;;;;-144.12;100.00;72078.50;5008679;28;20026;-69
2022/05/23 11:57:30;;;;;;;0.57;0.40;;;;;;;-144.12;100.00;72078.50;5010960;28;20029;-69
2022/05/23 11:59:56;;;;;;;0.40;0.40;;;;;;;-144.12;100.00;72078.50;5003278;28;20033;-70
2022/05/23 12:02:25;;;;;;;5.72;0.80;;;;;;;-144.12;100.00;72078.50;5014698;28;20066;-69
2022/05/23 12:04:55;;;;;;;0.30;0.30;;;;;;;-144.12;100.00;72078.50;4995299;28;20088;-70
2022/05/23 12:07:52;;;;;;;0.85;0.47;;;;;;;-144.12;100.00;72078.50;4973463;28;20049;-69
2022/05/23 12:10:21;;;;;;;3.08;0.50;;;;;;;-144.12;100.00;72078.50;4982905;28;20476;-69
2022/05/23 12:12:50;;;;;;;0.30;0.30;;;;;;;-144.12;100.00;72078.50;4982507;28;20057;-69
2022/05/23 12:15:43;;;;;;;0.50;0.50;;;;;;;-144.12;100.00;72078.50;5003981;28;20034;-70
2022/05/23 12:18:28;;;;;;;1.13;0.50;;;;;;;-144.12;100.00;72078.50;4985411;28;20498;-70
2022/05/23 12:20:53;;;;;;;1.95;0.40;;;;;;;-144.12;100.00;72078.50;4993215;28;20144;-70
2022/05/23 12:23:39;;;;;;;1.20;0.70;;;;;;;-144.12;100.00;72078.50;4991301;28;21486;-69
2022/05/23 12:26:10;;;;;;;0.95;0.57;;;;;;;-144.12;100.00;72078.50;5004980;28;20494;-69
2022/05/23 12:28:53;;;;;;;0.52;0.30;;;;;;;-144.12;100.00;72078.50;4998409;28;20049;-70
2022/05/23 12:31:21;;;;;;;0.60;0.30;;;;;;;-144.12;100.00;72078.50;5010060;28;20506;-69
2022/05/23 12:34:07;;;;;;;0.40;0.40;;;;;;;-144.12;100.00;72078.50;4988332;28;20037;-69
2022/05/23 12:36:36;;;;;;;0.68;0.38;;;;;;;-144.12;100.00;72078.50;5010761;28;20038;-69
2022/05/23 12:39:23;;;;;;;0.50;0.45;;;;;;;-144.12;100.00;72078.50;5011595;28;20494;-69
2022/05/23 12:42:37;;;;;;;0.60;0.40;;;;;;;-144.12;100.00;72078.50;5002467;28;20121;-70
2022/05/23 12:45:19;;;;;;;0.75;0.43;;;;;;;-144.12;100.00;72078.50;4990062;28;20050;-69